sensor_id;sensor_type;location;lat;lon;timestamp;temperature;humidity
78297;DHT22;67555;47.660;19.622;2023-04-25T00:01:32;12.50;80.30
78297;DHT22;67555;47.660;19.622;2023-04-25T00:04:00;12.50;80.30
78297;DHT22;67555;47.660;19.622;2023-04-25T00:06:26;12.30;80.50
78297;DHT22;67555;47.660;19.622;2023-04-25T00:08:52;12.30;80.70
78297;DHT22;67555;47.660;19.622;2023-04-25T00:11:19;12.20;81.10
78297;DHT22;67555;47.660;19.622;2023-04-25T00:13:44;12.10;81.40
78297;DHT22;67555;47.660;19.622;2023-04-25T00:16:11;12.10;81.50
78297;DHT22;67555;47.660;19.622;2023-04-25T00:18:39;12.20;81.40
78297;DHT22;67555;47.660;19.622;2023-04-25T00:21:06;12.30;81.00
78297;DHT22;67555;47.660;19.622;2023-04-25T00:23:31;12.40;80.60
78297;DHT22;67555;47.660;19.622;2023-04-25T00:25:57;12.50;80.20
78297;DHT22;67555;47.660;19.622;2023-04-25T00:28:23;12.60;79.70
78297;DHT22;67555;47.660;19.622;2023-04-25T00:30:49;12.70;79.40
78297;DHT22;67555;47.660;19.622;2023-04-25T00:33:14;12.80;79.10
78297;DHT22;67555;47.660;19.622;2023-04-25T00:35:40;12.80;79.00
78297;DHT22;67555;47.660;19.622;2023-04-25T00:38:06;12.80;78.70
78297;DHT22;67555;47.660;19.622;2023-04-25T00:40:31;12.90;78.50
78297;DHT22;67555;47.660;19.622;2023-04-25T00:42:57;12.90;78.40
78297;DHT22;67555;47.660;19.622;2023-04-25T00:45:27;12.90;78.20
78297;DHT22;67555;47.660;19.622;2023-04-25T00:47:54;13.00;78.10
78297;DHT22;67555;47.660;19.622;2023-04-25T00:50:20;13.00;78.00
78297;DHT22;67555;47.660;19.622;2023-04-25T00:52:46;13.00;78.00
78297;DHT22;67555;47.660;19.622;2023-04-25T00:55:12;13.10;77.80
78297;DHT22;67555;47.660;19.622;2023-04-25T00:57:39;13.10;77.60
78297;DHT22;67555;47.660;19.622;2023-04-25T01:00:06;13.10;77.50
78297;DHT22;67555;47.660;19.622;2023-04-25T01:02:33;13.10;77.40
78297;DHT22;67555;47.660;19.622;2023-04-25T01:04:59;13.10;77.40
78297;DHT22;67555;47.660;19.622;2023-04-25T01:07:25;13.00;77.50
78297;DHT22;67555;47.660;19.622;2023-04-25T01:09:52;13.00;77.60
78297;DHT22;67555;47.660;19.622;2023-04-25T01:12:18;13.00;77.70
78297;DHT22;67555;47.660;19.622;2023-04-25T01:14:44;13.00;77.60
78297;DHT22;67555;47.660;19.622;2023-04-25T01:17:10;13.00;77.50
78297;DHT22;67555;47.660;19.622;2023-04-25T01:19:36;13.00;77.40
78297;DHT22;67555;47.660;19.622;2023-04-25T01:22:02;13.00;77.30
78297;DHT22;67555;47.660;19.622;2023-04-25T01:24:29;13.00;77.30
78297;DHT22;67555;47.660;19.622;2023-04-25T01:26:56;12.90;77.50
78297;DHT22;67555;47.660;19.622;2023-04-25T01:29:23;12.80;77.80
78297;DHT22;67555;47.660;19.622;2023-04-25T01:31:51;12.60;78.30
78297;DHT22;67555;47.660;19.622;2023-04-25T01:34:17;12.40;79.00
78297;DHT22;67555;47.660;19.622;2023-04-25T01:36:43;12.20;79.70
78297;DHT22;67555;47.660;19.622;2023-04-25T01:39:09;12.10;80.30
78297;DHT22;67555;47.660;19.622;2023-04-25T01:41:35;11.90;80.80
78297;DHT22;67555;47.660;19.622;2023-04-25T01:44:01;11.90;81.20
78297;DHT22;67555;47.660;19.622;2023-04-25T01:46:27;11.80;81.50
78297;DHT22;67555;47.660;19.622;2023-04-25T01:48:53;11.70;81.80
78297;DHT22;67555;47.660;19.622;2023-04-25T01:51:19;11.70;82.00
78297;DHT22;67555;47.660;19.622;2023-04-25T01:53:45;11.70;82.10
78297;DHT22;67555;47.660;19.622;2023-04-25T01:56:10;11.70;82.10
78297;DHT22;67555;47.660;19.622;2023-04-25T01:58:36;11.70;82.10
78297;DHT22;67555;47.660;19.622;2023-04-25T02:01:02;11.70;82.00
78297;DHT22;67555;47.660;19.622;2023-04-25T02:03:30;11.70;81.80
78297;DHT22;67555;47.660;19.622;2023-04-25T02:05:56;11.70;81.60
78297;DHT22;67555;47.660;19.622;2023-04-25T02:08:22;11.70;81.40
78297;DHT22;67555;47.660;19.622;2023-04-25T02:10:48;11.70;81.30
78297;DHT22;67555;47.660;19.622;2023-04-25T02:13:13;11.70;81.10
78297;DHT22;67555;47.660;19.622;2023-04-25T02:15:39;11.70;81.10
78297;DHT22;67555;47.660;19.622;2023-04-25T02:18:05;11.70;81.00
78297;DHT22;67555;47.660;19.622;2023-04-25T02:20:32;11.70;80.80
78297;DHT22;67555;47.660;19.622;2023-04-25T02:22:57;11.70;80.60
78297;DHT22;67555;47.660;19.622;2023-04-25T02:25:23;11.70;80.60
78297;DHT22;67555;47.660;19.622;2023-04-25T02:27:49;11.70;80.50
78297;DHT22;67555;47.660;19.622;2023-04-25T02:30:16;11.70;80.10
78297;DHT22;67555;47.660;19.622;2023-04-25T02:32:42;11.70;80.10
78297;DHT22;67555;47.660;19.622;2023-04-25T02:35:08;11.70;80.00
78297;DHT22;67555;47.660;19.622;2023-04-25T02:37:36;11.70;80.00
78297;DHT22;67555;47.660;19.622;2023-04-25T02:40:02;11.80;79.70
78297;DHT22;67555;47.660;19.622;2023-04-25T02:42:29;11.90;79.40
78297;DHT22;67555;47.660;19.622;2023-04-25T02:44:55;12.10;79.00
78297;DHT22;67555;47.660;19.622;2023-04-25T02:47:21;12.20;78.70
78297;DHT22;67555;47.660;19.622;2023-04-25T02:49:47;12.30;78.40
78297;DHT22;67555;47.660;19.622;2023-04-25T02:52:13;12.30;78.10
78297;DHT22;67555;47.660;19.622;2023-04-25T02:54:39;12.20;77.90
78297;DHT22;67555;47.660;19.622;2023-04-25T02:57:05;12.20;78.20
78297;DHT22;67555;47.660;19.622;2023-04-25T02:59:31;12.20;78.20
78297;DHT22;67555;47.660;19.622;2023-04-25T03:01:57;12.30;78.00
78297;DHT22;67555;47.660;19.622;2023-04-25T03:04:23;12.30;77.80
78297;DHT22;67555;47.660;19.622;2023-04-25T03:06:56;12.20;77.90
78297;DHT22;67555;47.660;19.622;2023-04-25T03:09:22;12.00;78.30
78297;DHT22;67555;47.660;19.622;2023-04-25T03:11:48;11.90;78.60
78297;DHT22;67555;47.660;19.622;2023-04-25T03:14:14;11.80;78.80
78297;DHT22;67555;47.660;19.622;2023-04-25T03:16:40;11.70;78.60
78297;DHT22;67555;47.660;19.622;2023-04-25T03:19:08;11.70;78.70
78297;DHT22;67555;47.660;19.622;2023-04-25T03:21:35;11.70;78.70
78297;DHT22;67555;47.660;19.622;2023-04-25T03:24:02;11.60;78.90
78297;DHT22;67555;47.660;19.622;2023-04-25T03:26:28;11.50;79.00
78297;DHT22;67555;47.660;19.622;2023-04-25T03:28:54;11.50;79.10
78297;DHT22;67555;47.660;19.622;2023-04-25T03:31:20;11.50;79.00
78297;DHT22;67555;47.660;19.622;2023-04-25T03:33:45;11.50;79.10
78297;DHT22;67555;47.660;19.622;2023-04-25T03:36:11;11.50;79.00
78297;DHT22;67555;47.660;19.622;2023-04-25T03:38:37;11.50;78.90
78297;DHT22;67555;47.660;19.622;2023-04-25T03:41:03;11.50;78.80
78297;DHT22;67555;47.660;19.622;2023-04-25T03:43:28;11.40;79.00
78297;DHT22;67555;47.660;19.622;2023-04-25T03:45:54;11.40;79.00
78297;DHT22;67555;47.660;19.622;2023-04-25T03:48:20;11.40;79.10
78297;DHT22;67555;47.660;19.622;2023-04-25T03:50:53;11.30;79.10
78297;DHT22;67555;47.660;19.622;2023-04-25T03:53:19;11.30;79.10
78297;DHT22;67555;47.660;19.622;2023-04-25T03:55:45;11.30;78.70
78297;DHT22;67555;47.660;19.622;2023-04-25T03:58:10;11.30;78.70
78297;DHT22;67555;47.660;19.622;2023-04-25T04:00:36;11.20;78.90
78297;DHT22;67555;47.660;19.622;2023-04-25T04:03:02;11.20;78.80
78297;DHT22;67555;47.660;19.622;2023-04-25T04:05:28;11.20;78.50
78297;DHT22;67555;47.660;19.622;2023-04-25T04:07:54;11.20;78.50
78297;DHT22;67555;47.660;19.622;2023-04-25T04:10:21;11.20;78.40
78297;DHT22;67555;47.660;19.622;2023-04-25T04:12:46;11.20;78.40
78297;DHT22;67555;47.660;19.622;2023-04-25T04:15:12;11.10;78.30
78297;DHT22;67555;47.660;19.622;2023-04-25T04:17:38;11.10;78.30
78297;DHT22;67555;47.660;19.622;2023-04-25T04:20:04;11.10;78.20
78297;DHT22;67555;47.660;19.622;2023-04-25T04:22:31;11.10;78.00
78297;DHT22;67555;47.660;19.622;2023-04-25T04:24:56;11.10;77.90
78297;DHT22;67555;47.660;19.622;2023-04-25T04:27:22;11.10;78.00
78297;DHT22;67555;47.660;19.622;2023-04-25T04:29:49;11.10;78.10
78297;DHT22;67555;47.660;19.622;2023-04-25T04:32:16;11.10;77.70
78297;DHT22;67555;47.660;19.622;2023-04-25T04:34:42;11.10;77.40
78297;DHT22;67555;47.660;19.622;2023-04-25T04:37:08;11.10;77.50
78297;DHT22;67555;47.660;19.622;2023-04-25T04:39:35;11.10;77.50
78297;DHT22;67555;47.660;19.622;2023-04-25T04:42:02;11.10;77.70
78297;DHT22;67555;47.660;19.622;2023-04-25T04:44:29;11.10;77.70
78297;DHT22;67555;47.660;19.622;2023-04-25T04:46:58;11.10;77.80
78297;DHT22;67555;47.660;19.622;2023-04-25T04:49:24;11.10;77.80
78297;DHT22;67555;47.660;19.622;2023-04-25T04:51:49;11.10;77.80
78297;DHT22;67555;47.660;19.622;2023-04-25T04:54:15;11.10;78.00
78297;DHT22;67555;47.660;19.622;2023-04-25T04:56:41;11.10;78.20
78297;DHT22;67555;47.660;19.622;2023-04-25T04:59:07;11.10;78.30
78297;DHT22;67555;47.660;19.622;2023-04-25T05:01:33;11.10;78.30
78297;DHT22;67555;47.660;19.622;2023-04-25T05:04:01;11.10;78.00
78297;DHT22;67555;47.660;19.622;2023-04-25T05:06:28;11.10;78.10
78297;DHT22;67555;47.660;19.622;2023-04-25T05:08:57;11.10;78.30
78297;DHT22;67555;47.660;19.622;2023-04-25T05:11:24;11.00;78.30
78297;DHT22;67555;47.660;19.622;2023-04-25T05:13:52;11.00;78.50
78297;DHT22;67555;47.660;19.622;2023-04-25T05:16:18;11.00;78.60
78297;DHT22;67555;47.660;19.622;2023-04-25T05:18:44;11.00;78.70
78297;DHT22;67555;47.660;19.622;2023-04-25T05:21:09;11.00;78.70
78297;DHT22;67555;47.660;19.622;2023-04-25T05:23:35;11.00;78.60
78297;DHT22;67555;47.660;19.622;2023-04-25T05:26:01;11.00;78.50
78297;DHT22;67555;47.660;19.622;2023-04-25T05:28:27;11.00;78.40
78297;DHT22;67555;47.660;19.622;2023-04-25T05:30:52;11.00;78.60
78297;DHT22;67555;47.660;19.622;2023-04-25T05:33:18;11.00;78.30
78297;DHT22;67555;47.660;19.622;2023-04-25T05:35:44;11.00;78.30
78297;DHT22;67555;47.660;19.622;2023-04-25T05:38:10;11.00;78.40
78297;DHT22;67555;47.660;19.622;2023-04-25T05:40:36;11.00;78.40
78297;DHT22;67555;47.660;19.622;2023-04-25T05:43:02;11.00;78.40
78297;DHT22;67555;47.660;19.622;2023-04-25T05:45:28;11.00;78.50
78297;DHT22;67555;47.660;19.622;2023-04-25T05:47:53;11.00;78.50
78297;DHT22;67555;47.660;19.622;2023-04-25T05:50:19;10.90;78.40
78297;DHT22;67555;47.660;19.622;2023-04-25T05:52:45;10.90;78.60
78297;DHT22;67555;47.660;19.622;2023-04-25T05:55:11;10.90;78.80
78297;DHT22;67555;47.660;19.622;2023-04-25T05:57:36;10.90;78.30
78297;DHT22;67555;47.660;19.622;2023-04-25T06:00:02;10.90;78.10
78297;DHT22;67555;47.660;19.622;2023-04-25T06:02:29;10.90;78.50
78297;DHT22;67555;47.660;19.622;2023-04-25T06:04:55;10.80;78.20
78297;DHT22;67555;47.660;19.622;2023-04-25T06:07:21;10.70;79.00
78297;DHT22;67555;47.660;19.622;2023-04-25T06:09:47;10.60;79.40
78297;DHT22;67555;47.660;19.622;2023-04-25T06:12:13;10.50;80.20
78297;DHT22;67555;47.660;19.622;2023-04-25T06:14:38;10.30;80.90
78297;DHT22;67555;47.660;19.622;2023-04-25T06:17:04;10.30;81.70
78297;DHT22;67555;47.660;19.622;2023-04-25T06:19:34;10.20;82.20
78297;DHT22;67555;47.660;19.622;2023-04-25T06:22:01;10.10;82.70
78297;DHT22;67555;47.660;19.622;2023-04-25T06:24:27;10.10;82.90
78297;DHT22;67555;47.660;19.622;2023-04-25T06:26:53;10.00;83.40
78297;DHT22;67555;47.660;19.622;2023-04-25T06:29:19;9.90;83.70
78297;DHT22;67555;47.660;19.622;2023-04-25T06:31:45;9.80;84.10
78297;DHT22;67555;47.660;19.622;2023-04-25T06:34:10;9.80;84.40
78297;DHT22;67555;47.660;19.622;2023-04-25T06:36:36;9.70;84.70
78297;DHT22;67555;47.660;19.622;2023-04-25T06:39:02;9.60;85.10
78297;DHT22;67555;47.660;19.622;2023-04-25T06:41:27;9.50;85.80
78297;DHT22;67555;47.660;19.622;2023-04-25T06:43:53;9.40;86.50
78297;DHT22;67555;47.660;19.622;2023-04-25T06:46:19;9.40;87.10
78297;DHT22;67555;47.660;19.622;2023-04-25T06:48:45;9.40;87.40
78297;DHT22;67555;47.660;19.622;2023-04-25T06:51:11;9.40;87.80
78297;DHT22;67555;47.660;19.622;2023-04-25T06:53:39;9.30;88.00
78297;DHT22;67555;47.660;19.622;2023-04-25T06:56:04;9.20;88.40
78297;DHT22;67555;47.660;19.622;2023-04-25T06:58:30;9.20;89.00
78297;DHT22;67555;47.660;19.622;2023-04-25T07:00:56;9.00;89.40
78297;DHT22;67555;47.660;19.622;2023-04-25T07:03:22;9.00;89.80
78297;DHT22;67555;47.660;19.622;2023-04-25T07:05:48;9.00;90.10
78297;DHT22;67555;47.660;19.622;2023-04-25T07:08:13;9.00;90.50
78297;DHT22;67555;47.660;19.622;2023-04-25T07:10:44;9.00;90.80
78297;DHT22;67555;47.660;19.622;2023-04-25T07:13:11;9.00;91.00
78297;DHT22;67555;47.660;19.622;2023-04-25T07:15:37;9.00;91.20
78297;DHT22;67555;47.660;19.622;2023-04-25T07:18:03;9.00;91.10
78297;DHT22;67555;47.660;19.622;2023-04-25T07:20:28;9.00;90.90
78297;DHT22;67555;47.660;19.622;2023-04-25T07:22:56;9.00;90.90
78297;DHT22;67555;47.660;19.622;2023-04-25T07:25:22;9.00;90.80
78297;DHT22;67555;47.660;19.622;2023-04-25T07:27:48;9.00;90.70
78297;DHT22;67555;47.660;19.622;2023-04-25T07:30:14;9.00;90.90
78297;DHT22;67555;47.660;19.622;2023-04-25T07:32:40;9.10;90.90
78297;DHT22;67555;47.660;19.622;2023-04-25T07:35:06;9.10;90.90
78297;DHT22;67555;47.660;19.622;2023-04-25T07:37:35;9.10;91.00
78297;DHT22;67555;47.660;19.622;2023-04-25T07:40:05;9.00;90.90
78297;DHT22;67555;47.660;19.622;2023-04-25T07:42:31;9.00;91.10
78297;DHT22;67555;47.660;19.622;2023-04-25T07:44:57;9.00;91.20
78297;DHT22;67555;47.660;19.622;2023-04-25T07:47:22;9.00;91.40
78297;DHT22;67555;47.660;19.622;2023-04-25T07:49:48;9.00;91.60
78297;DHT22;67555;47.660;19.622;2023-04-25T07:52:15;9.00;92.00
78297;DHT22;67555;47.660;19.622;2023-04-25T07:54:41;9.00;92.20
78297;DHT22;67555;47.660;19.622;2023-04-25T07:57:07;9.00;92.50
78297;DHT22;67555;47.660;19.622;2023-04-25T07:59:32;9.00;92.70
78297;DHT22;67555;47.660;19.622;2023-04-25T08:01:58;9.00;92.80
78297;DHT22;67555;47.660;19.622;2023-04-25T08:04:24;9.00;93.00
78297;DHT22;67555;47.660;19.622;2023-04-25T08:06:53;9.00;93.00
78297;DHT22;67555;47.660;19.622;2023-04-25T08:09:21;9.00;93.30
78297;DHT22;67555;47.660;19.622;2023-04-25T08:11:47;9.00;93.60
78297;DHT22;67555;47.660;19.622;2023-04-25T08:14:13;9.00;93.70
78297;DHT22;67555;47.660;19.622;2023-04-25T08:16:39;9.00;93.90
78297;DHT22;67555;47.660;19.622;2023-04-25T08:19:05;9.10;94.10
78297;DHT22;67555;47.660;19.622;2023-04-25T08:21:31;9.20;94.10
78297;DHT22;67555;47.660;19.622;2023-04-25T08:23:58;9.20;94.30
78297;DHT22;67555;47.660;19.622;2023-04-25T08:26:25;9.30;94.50
78297;DHT22;67555;47.660;19.622;2023-04-25T08:28:51;9.40;94.50
78297;DHT22;67555;47.660;19.622;2023-04-25T08:31:17;9.40;94.40
78297;DHT22;67555;47.660;19.622;2023-04-25T08:33:43;9.50;94.40
78297;DHT22;67555;47.660;19.622;2023-04-25T08:36:10;9.50;94.80
78297;DHT22;67555;47.660;19.622;2023-04-25T08:38:36;9.60;94.70
78297;DHT22;67555;47.660;19.622;2023-04-25T08:41:02;9.70;94.60
78297;DHT22;67555;47.660;19.622;2023-04-25T08:43:29;9.80;94.40
78297;DHT22;67555;47.660;19.622;2023-04-25T08:45:58;9.80;94.50
78297;DHT22;67555;47.660;19.622;2023-04-25T08:48:24;10.00;94.50
78297;DHT22;67555;47.660;19.622;2023-04-25T08:50:54;10.00;94.30
78297;DHT22;67555;47.660;19.622;2023-04-25T08:53:25;10.10;94.30
78297;DHT22;67555;47.660;19.622;2023-04-25T08:55:54;10.20;94.50
78297;DHT22;67555;47.660;19.622;2023-04-25T08:58:21;10.30;94.10
78297;DHT22;67555;47.660;19.622;2023-04-25T09:00:47;10.30;94.00
78297;DHT22;67555;47.660;19.622;2023-04-25T09:03:14;10.30;93.50
78297;DHT22;67555;47.660;19.622;2023-04-25T09:05:41;10.20;93.60
78297;DHT22;67555;47.660;19.622;2023-04-25T09:08:07;10.30;93.50
78297;DHT22;67555;47.660;19.622;2023-04-25T09:10:33;10.30;93.30
78297;DHT22;67555;47.660;19.622;2023-04-25T09:13:12;10.30;93.00
78297;DHT22;67555;47.660;19.622;2023-04-25T09:15:48;10.20;92.80
78297;DHT22;67555;47.660;19.622;2023-04-25T09:20:52;10.40;93.30
78297;DHT22;67555;47.660;19.622;2023-04-25T09:23:19;10.50;93.10
78297;DHT22;67555;47.660;19.622;2023-04-25T09:25:51;10.50;92.70
78297;DHT22;67555;47.660;19.622;2023-04-25T09:28:23;10.60;93.00
78297;DHT22;67555;47.660;19.622;2023-04-25T09:30:55;10.60;92.50
78297;DHT22;67555;47.660;19.622;2023-04-25T09:33:28;10.70;92.90
78297;DHT22;67555;47.660;19.622;2023-04-25T09:35:54;10.80;92.30
78297;DHT22;67555;47.660;19.622;2023-04-25T09:38:22;10.80;92.00
78297;DHT22;67555;47.660;19.622;2023-04-25T09:40:48;10.80;91.40
78297;DHT22;67555;47.660;19.622;2023-04-25T09:43:19;10.90;91.60
78297;DHT22;67555;47.660;19.622;2023-04-25T09:45:46;10.90;91.10
78297;DHT22;67555;47.660;19.622;2023-04-25T09:48:20;10.90;90.40
78297;DHT22;67555;47.660;19.622;2023-04-25T09:51:10;10.90;90.20
78297;DHT22;67555;47.660;19.622;2023-04-25T09:53:38;10.90;89.80
78297;DHT22;67555;47.660;19.622;2023-04-25T09:56:05;10.90;88.90
78297;DHT22;67555;47.660;19.622;2023-04-25T09:58:33;10.80;88.30
78297;DHT22;67555;47.660;19.622;2023-04-25T10:01:04;10.90;88.60
78297;DHT22;67555;47.660;19.622;2023-04-25T10:03:32;11.00;88.20
78297;DHT22;67555;47.660;19.622;2023-04-25T10:06:03;11.10;87.80
78297;DHT22;67555;47.660;19.622;2023-04-25T10:08:36;11.10;86.40
78297;DHT22;67555;47.660;19.622;2023-04-25T10:11:05;11.10;86.90
78297;DHT22;67555;47.660;19.622;2023-04-25T10:13:33;11.10;85.90
78297;DHT22;67555;47.660;19.622;2023-04-25T10:16:00;11.10;86.30
78297;DHT22;67555;47.660;19.622;2023-04-25T10:18:27;11.10;86.20
78297;DHT22;67555;47.660;19.622;2023-04-25T10:20:55;11.20;85.90
78297;DHT22;67555;47.660;19.622;2023-04-25T10:23:21;11.20;84.70
78297;DHT22;67555;47.660;19.622;2023-04-25T10:25:48;11.30;84.20
78297;DHT22;67555;47.660;19.622;2023-04-25T10:28:14;11.30;84.00
78297;DHT22;67555;47.660;19.622;2023-04-25T10:31:03;11.40;83.40
78297;DHT22;67555;47.660;19.622;2023-04-25T10:33:35;11.40;82.60
78297;DHT22;67555;47.660;19.622;2023-04-25T10:36:15;11.50;82.10
78297;DHT22;67555;47.660;19.622;2023-04-25T10:38:43;11.70;81.40
78297;DHT22;67555;47.660;19.622;2023-04-25T10:41:10;11.90;80.40
78297;DHT22;67555;47.660;19.622;2023-04-25T10:43:40;11.90;78.80
78297;DHT22;67555;47.660;19.622;2023-04-25T10:48:47;11.90;77.80
78297;DHT22;67555;47.660;19.622;2023-04-25T10:51:28;11.90;78.00
78297;DHT22;67555;47.660;19.622;2023-04-25T10:54:02;11.90;77.80
78297;DHT22;67555;47.660;19.622;2023-04-25T10:56:31;11.80;77.30
78297;DHT22;67555;47.660;19.622;2023-04-25T10:59:16;11.90;77.60
78297;DHT22;67555;47.660;19.622;2023-04-25T11:01:42;11.80;76.80
78297;DHT22;67555;47.660;19.622;2023-04-25T11:04:29;11.80;75.80
78297;DHT22;67555;47.660;19.622;2023-04-25T11:06:58;11.70;76.00
78297;DHT22;67555;47.660;19.622;2023-04-25T11:09:26;11.70;75.80
78297;DHT22;67555;47.660;19.622;2023-04-25T11:11:56;11.70;75.20
78297;DHT22;67555;47.660;19.622;2023-04-25T11:14:22;11.60;75.30
78297;DHT22;67555;47.660;19.622;2023-04-25T11:16:56;11.60;75.70
78297;DHT22;67555;47.660;19.622;2023-04-25T11:19:23;11.50;75.20
78297;DHT22;67555;47.660;19.622;2023-04-25T11:21:49;11.50;75.20
78297;DHT22;67555;47.660;19.622;2023-04-25T11:24:18;11.50;75.40
78297;DHT22;67555;47.660;19.622;2023-04-25T11:26:46;11.50;75.40
78297;DHT22;67555;47.660;19.622;2023-04-25T11:29:13;11.60;76.30
78297;DHT22;67555;47.660;19.622;2023-04-25T11:31:42;11.70;76.00
78297;DHT22;67555;47.660;19.622;2023-04-25T11:34:08;11.70;75.40
78297;DHT22;67555;47.660;19.622;2023-04-25T11:36:34;11.60;74.40
78297;DHT22;67555;47.660;19.622;2023-04-25T11:39:00;11.50;74.80
78297;DHT22;67555;47.660;19.622;2023-04-25T11:41:27;11.50;75.20
78297;DHT22;67555;47.660;19.622;2023-04-25T11:43:52;11.50;74.60
78297;DHT22;67555;47.660;19.622;2023-04-25T11:46:19;11.50;74.30
78297;DHT22;67555;47.660;19.622;2023-04-25T11:48:45;11.50;74.40
78297;DHT22;67555;47.660;19.622;2023-04-25T11:51:11;11.60;74.40
78297;DHT22;67555;47.660;19.622;2023-04-25T11:53:41;11.70;74.50
78297;DHT22;67555;47.660;19.622;2023-04-25T11:56:11;11.70;74.60
78297;DHT22;67555;47.660;19.622;2023-04-25T11:58:59;11.90;74.90
78297;DHT22;67555;47.660;19.622;2023-04-25T12:01:33;12.10;74.20
78297;DHT22;67555;47.660;19.622;2023-04-25T12:06:42;12.30;72.30
78297;DHT22;67555;47.660;19.622;2023-04-25T12:09:10;12.30;70.40
78297;DHT22;67555;47.660;19.622;2023-04-25T12:11:43;12.30;70.50
78297;DHT22;67555;47.660;19.622;2023-04-25T12:14:20;12.30;69.80
78297;DHT22;67555;47.660;19.622;2023-04-25T12:16:47;12.50;69.80
78297;DHT22;67555;47.660;19.622;2023-04-25T12:19:15;12.50;68.50
78297;DHT22;67555;47.660;19.622;2023-04-25T12:21:41;12.50;69.00
78297;DHT22;67555;47.660;19.622;2023-04-25T12:27:01;12.90;68.40
78297;DHT22;67555;47.660;19.622;2023-04-25T12:29:28;13.10;67.60
78297;DHT22;67555;47.660;19.622;2023-04-25T12:31:55;13.10;68.00
78297;DHT22;67555;47.660;19.622;2023-04-25T12:34:22;13.20;67.50
78297;DHT22;67555;47.660;19.622;2023-04-25T12:36:49;13.10;66.50
78297;DHT22;67555;47.660;19.622;2023-04-25T12:41:42;13.40;65.50
78297;DHT22;67555;47.660;19.622;2023-04-25T12:44:08;13.60;63.20
78297;DHT22;67555;47.660;19.622;2023-04-25T12:46:34;13.70;62.60
78297;DHT22;67555;47.660;19.622;2023-04-25T12:48:59;13.80;63.10
78297;DHT22;67555;47.660;19.622;2023-04-25T12:51:25;13.90;63.20
78297;DHT22;67555;47.660;19.622;2023-04-25T12:53:53;13.90;62.00
78297;DHT22;67555;47.660;19.622;2023-04-25T12:56:19;14.00;61.60
78297;DHT22;67555;47.660;19.622;2023-04-25T12:58:45;14.20;61.80
78297;DHT22;67555;47.660;19.622;2023-04-25T13:01:11;14.30;60.30
78297;DHT22;67555;47.660;19.622;2023-04-25T13:03:37;14.40;59.50
78297;DHT22;67555;47.660;19.622;2023-04-25T13:06:03;14.50;59.20
78297;DHT22;67555;47.660;19.622;2023-04-25T13:08:30;14.50;57.20
78297;DHT22;67555;47.660;19.622;2023-04-25T13:10:55;14.60;58.00
78297;DHT22;67555;47.660;19.622;2023-04-25T13:13:21;14.90;58.20
78297;DHT22;67555;47.660;19.622;2023-04-25T13:15:47;15.00;56.90
78297;DHT22;67555;47.660;19.622;2023-04-25T13:18:14;15.00;56.80
78297;DHT22;67555;47.660;19.622;2023-04-25T13:20:41;15.20;57.40
78297;DHT22;67555;47.660;19.622;2023-04-25T13:23:06;15.20;58.00
78297;DHT22;67555;47.660;19.622;2023-04-25T13:25:32;15.00;57.70
78297;DHT22;67555;47.660;19.622;2023-04-25T13:27:59;15.00;57.70
78297;DHT22;67555;47.660;19.622;2023-04-25T13:30:24;14.90;57.80
78297;DHT22;67555;47.660;19.622;2023-04-25T13:32:50;14.90;58.30
78297;DHT22;67555;47.660;19.622;2023-04-25T13:35:16;14.90;57.60
78297;DHT22;67555;47.660;19.622;2023-04-25T13:37:42;14.90;57.70
78297;DHT22;67555;47.660;19.622;2023-04-25T13:40:10;14.90;58.20
78297;DHT22;67555;47.660;19.622;2023-04-25T13:42:37;14.90;58.60
78297;DHT22;67555;47.660;19.622;2023-04-25T13:45:03;15.00;58.20
78297;DHT22;67555;47.660;19.622;2023-04-25T13:47:30;15.10;58.80
78297;DHT22;67555;47.660;19.622;2023-04-25T13:49:56;15.20;58.70
78297;DHT22;67555;47.660;19.622;2023-04-25T13:52:23;15.40;58.70
78297;DHT22;67555;47.660;19.622;2023-04-25T13:54:51;15.60;58.60
78297;DHT22;67555;47.660;19.622;2023-04-25T13:57:17;15.70;57.70
78297;DHT22;67555;47.660;19.622;2023-04-25T13:59:43;15.70;57.50
78297;DHT22;67555;47.660;19.622;2023-04-25T14:02:10;15.70;57.20
78297;DHT22;67555;47.660;19.622;2023-04-25T14:04:35;15.80;57.90
78297;DHT22;67555;47.660;19.622;2023-04-25T14:07:02;15.80;56.80
78297;DHT22;67555;47.660;19.622;2023-04-25T14:09:29;15.80;54.80
78297;DHT22;67555;47.660;19.622;2023-04-25T14:11:55;15.80;53.50
78297;DHT22;67555;47.660;19.622;2023-04-25T14:14:22;15.80;52.80
78297;DHT22;67555;47.660;19.622;2023-04-25T14:16:49;15.70;52.80
78297;DHT22;67555;47.660;19.622;2023-04-25T14:19:16;15.60;51.90
78297;DHT22;67555;47.660;19.622;2023-04-25T14:21:42;15.60;52.00
78297;DHT22;67555;47.660;19.622;2023-04-25T14:24:08;15.60;52.80
78297;DHT22;67555;47.660;19.622;2023-04-25T14:26:35;15.50;52.80
78297;DHT22;67555;47.660;19.622;2023-04-25T14:29:03;15.50;52.20
78297;DHT22;67555;47.660;19.622;2023-04-25T14:31:29;15.40;51.30
78297;DHT22;67555;47.660;19.622;2023-04-25T14:33:54;15.30;51.60
78297;DHT22;67555;47.660;19.622;2023-04-25T14:36:20;15.30;52.30
78297;DHT22;67555;47.660;19.622;2023-04-25T14:38:46;15.30;51.50
78297;DHT22;67555;47.660;19.622;2023-04-25T14:41:12;15.30;52.50
78297;DHT22;67555;47.660;19.622;2023-04-25T14:43:38;15.20;51.50
78297;DHT22;67555;47.660;19.622;2023-04-25T14:46:06;15.10;50.80
78297;DHT22;67555;47.660;19.622;2023-04-25T14:48:32;15.00;51.30
78297;DHT22;67555;47.660;19.622;2023-04-25T14:50:59;15.10;51.60
78297;DHT22;67555;47.660;19.622;2023-04-25T14:53:28;15.20;50.90
78297;DHT22;67555;47.660;19.622;2023-04-25T14:55:55;15.30;50.20
78297;DHT22;67555;47.660;19.622;2023-04-25T14:58:21;15.30;50.70
78297;DHT22;67555;47.660;19.622;2023-04-25T15:00:47;15.30;50.40
78297;DHT22;67555;47.660;19.622;2023-04-25T15:03:13;15.30;50.80
78297;DHT22;67555;47.660;19.622;2023-04-25T15:05:39;15.30;51.20
78297;DHT22;67555;47.660;19.622;2023-04-25T15:08:06;15.40;51.60
78297;DHT22;67555;47.660;19.622;2023-04-25T15:10:32;15.60;51.90
78297;DHT22;67555;47.660;19.622;2023-04-25T15:12:58;15.60;50.60
78297;DHT22;67555;47.660;19.622;2023-04-25T15:15:24;15.60;50.00
78297;DHT22;67555;47.660;19.622;2023-04-25T15:17:50;15.40;49.40
78297;DHT22;67555;47.660;19.622;2023-04-25T15:20:16;15.10;50.00
78297;DHT22;67555;47.660;19.622;2023-04-25T15:22:43;15.00;50.40
78297;DHT22;67555;47.660;19.622;2023-04-25T15:25:16;14.80;51.00
78297;DHT22;67555;47.660;19.622;2023-04-25T15:27:45;14.80;52.10
78297;DHT22;67555;47.660;19.622;2023-04-25T15:30:15;14.80;52.60